Juntura, OR

6:45 AM MST on December 06, 2016 (GMT -0700)
Burns Municipal | | Change Station

Elev 4170 ft 43.60 °N, 118.96 °W | Updated 52 minutes ago

Overcast
Overcast
20 °F
Feels Like 15 °F
N
4
Wind Variable Wind from SSW

Today
High -- | Low -- °F
--% Chance of Precip.
Yesterday
High -- | Low -- °F
Precip. -- in
Pressure 29.92 in
Visibility 10.0 miles
Clouds Mostly Cloudy 4500 ft
Overcast 7000 ft
Windchill 15 °F
Dew Point 18 °F
Humidity 92%
Rainfall 0.01 in
Snow Depth Not available.
8:12 AM 5:15 PM
Waxing Crescent, 42% visible
METAR KBNO 061253Z AUTO 21003KT 10SM BKN045 OVC070 M07/M08 A2982 RMK AO2 SNE25 SLP131 P0000 T10671078
Pressure 29.92 in
Visibility 10.0 miles
Clouds Mostly Cloudy 4500 ft
Overcast 7000 ft
Windchill 15 °F
Dew Point 18 °F
Humidity 92%
Rainfall 0.01 in
Snow Depth Not available.
8:12 AM 5:15 PM
Waxing Crescent, 42% visible
METAR KBNO 061253Z AUTO 21003KT 10SM BKN045 OVC070 M07/M08 A2982 RMK AO2 SNE25 SLP131 P0000 T10671078

10-Day Weather Forecast

Almanac

Astronomy

Dec. 06, 2016 Rise Set
Actual Time
Civil Twilight
Nautical Twilight
Astronomical Twilight
Moon
Length of Visible Light
Length of Day
Tomorrow will be .
, % of the Moon is Illuminated

Today's Extremes

State Highs State Lows

Community

WunderPhotos

Upload Photos

1,955,944 photos uploaded!

WunderBlog® & News

Nearby

Air Quality

  Air Quality AQ Index Pollutant
Not available.

Snow Depth

Station Depth Elevation

Earthquake Activity

City Distance Mag. Time & Date
Minimum magnitude displayed is 2.5.

Coastal Water Temperatures

Place Temperature

Stations

Nearby Weather Stations

Station Location Temp. Windchill Dew Point Humidity Wind Precip. Elev Updated Type
                   

Watches & Warnings

There are currently no watches in effect.